createdAt,value
2023-04-28T00:00:38.508Z,97947.00
2023-04-28T00:03:06.369Z,97942.00
2023-04-28T00:05:34.312Z,97942.00
2023-04-28T00:08:03.673Z,97945.00
2023-04-28T00:10:32.000Z,97938.00
2023-04-28T00:12:59.695Z,97923.00
2023-04-28T00:15:27.445Z,97926.00
2023-04-28T00:17:55.415Z,97915.00
2023-04-28T00:20:23.184Z,97917.00
2023-04-28T00:22:50.848Z,97914.00
2023-04-28T00:25:19.805Z,97916.00
2023-04-28T00:27:47.422Z,97912.00
2023-04-28T00:30:15.507Z,97906.00
2023-04-28T00:32:43.213Z,97906.00
2023-04-28T00:35:11.172Z,97907.00
2023-04-28T00:37:39.401Z,97903.00
2023-04-28T00:40:08.548Z,97900.00
2023-04-28T00:42:37.581Z,97898.00
2023-04-28T00:45:07.298Z,97902.00
2023-04-28T00:47:35.759Z,97888.00
2023-04-28T00:50:05.729Z,97889.00
2023-04-28T00:52:33.594Z,97888.00
2023-04-28T00:55:01.280Z,97891.00
2023-04-28T00:57:28.918Z,97884.00
2023-04-28T00:59:58.117Z,97883.00
2023-04-28T01:02:26.092Z,97884.00
2023-04-28T01:04:54.918Z,97878.00
2023-04-28T01:07:22.704Z,97876.00
2023-04-28T01:09:50.397Z,97875.00
2023-04-28T01:12:18.091Z,97867.00
2023-04-28T01:14:45.994Z,97865.00
2023-04-28T01:17:15.490Z,97860.00
2023-04-28T01:19:43.151Z,97847.00
2023-04-28T01:22:14.065Z,97847.00
2023-04-28T01:24:43.103Z,97851.00
2023-04-28T01:27:11.421Z,97855.00
2023-04-28T01:29:39.100Z,97854.00
2023-04-28T01:32:06.792Z,97846.00
2023-04-28T01:34:34.459Z,97852.00
2023-04-28T01:37:02.144Z,97850.00
2023-04-28T01:39:29.751Z,97846.00
2023-04-28T01:41:58.785Z,97848.00
2023-04-28T01:44:26.670Z,97845.00
2023-04-28T01:46:54.314Z,97838.00
2023-04-28T01:49:21.986Z,97843.00
2023-04-28T01:51:49.596Z,97836.00
2023-04-28T01:54:17.494Z,97831.00
2023-04-28T01:56:45.488Z,97832.00
2023-04-28T01:59:14.483Z,97832.00
2023-04-28T02:01:42.148Z,97838.00
2023-04-28T02:04:10.039Z,97842.00
2023-04-28T02:06:37.789Z,97840.00
2023-04-28T02:09:05.430Z,97843.00
2023-04-28T02:11:33.076Z,97844.00
2023-04-28T02:14:00.710Z,97837.00
2023-04-28T02:16:29.836Z,97843.00
2023-04-28T02:18:57.507Z,97843.00
2023-04-28T02:21:26.359Z,97837.00
2023-04-28T02:23:53.996Z,97825.00
2023-04-28T02:26:21.640Z,97822.00
2023-04-28T02:28:49.666Z,97812.00
2023-04-28T02:31:17.677Z,97810.00
2023-04-28T02:33:46.766Z,97789.00
2023-04-28T02:36:14.439Z,97809.00
2023-04-28T02:38:42.447Z,97812.00
2023-04-28T02:41:10.213Z,97802.00
2023-04-28T02:43:38.243Z,97806.00
2023-04-28T02:46:06.235Z,97804.00
2023-04-28T02:48:35.552Z,97804.00
2023-04-28T02:51:04.837Z,97803.00
2023-04-28T02:53:32.466Z,97794.00
2023-04-28T02:56:02.061Z,97792.00
2023-04-28T02:58:29.726Z,97795.00
2023-04-28T03:00:57.388Z,97790.00
2023-04-28T03:03:25.250Z,97785.00
2023-04-28T03:05:53.040Z,97780.00
2023-04-28T03:08:22.399Z,97782.00
2023-04-28T03:10:50.042Z,97775.00
2023-04-28T03:13:17.715Z,97775.00
2023-04-28T03:15:45.524Z,97768.00
2023-04-28T03:18:13.139Z,97777.00
2023-04-28T03:20:40.777Z,97766.00
2023-04-28T03:23:08.438Z,97755.00
2023-04-28T03:25:37.443Z,97757.00
2023-04-28T03:28:05.950Z,97749.00
2023-04-28T03:30:33.632Z,97743.00
2023-04-28T03:33:01.289Z,97747.00
2023-04-28T03:35:29.096Z,97742.00
2023-04-28T03:37:56.734Z,97742.00
2023-04-28T03:40:24.459Z,97741.00
2023-04-28T03:42:53.435Z,97744.00
2023-04-28T03:45:21.187Z,97738.00
2023-04-28T03:47:48.834Z,97738.00
2023-04-28T03:50:16.522Z,97732.00
2023-04-28T03:52:44.151Z,97733.00
2023-04-28T03:55:11.780Z,97735.00
2023-04-28T03:57:39.403Z,97743.00
2023-04-28T04:00:10.116Z,97735.00
2023-04-28T04:02:37.898Z,97727.00
2023-04-28T04:05:06.309Z,97723.00
2023-04-28T04:07:34.045Z,97718.00
2023-04-28T04:10:04.245Z,97721.00
2023-04-28T04:12:32.361Z,97721.00
2023-04-28T04:15:00.045Z,97715.00
2023-04-28T04:17:29.167Z,97714.00
2023-04-28T04:19:56.822Z,97718.00
2023-04-28T04:22:24.459Z,97708.00
2023-04-28T04:24:52.173Z,97712.00
2023-04-28T04:27:20.154Z,97714.00
2023-04-28T04:29:47.826Z,97723.00
2023-04-28T04:32:15.496Z,97724.00
2023-04-28T04:34:44.881Z,97725.00
2023-04-28T04:37:12.643Z,97719.00
2023-04-28T04:39:40.311Z,97718.00
2023-04-28T04:42:23.374Z,97722.00
2023-04-28T04:44:52.355Z,97725.00
2023-04-28T04:47:20.235Z,97732.00
2023-04-28T04:49:49.435Z,97713.00
2023-04-28T04:52:17.233Z,97719.00
2023-04-28T04:54:44.881Z,97722.00
2023-04-28T04:57:13.018Z,97724.00
2023-04-28T04:59:40.692Z,97722.00
2023-04-28T05:02:08.548Z,97727.00
2023-04-28T05:04:36.714Z,97727.00
2023-04-28T05:07:05.832Z,97722.00
2023-04-28T05:09:33.960Z,97742.00
2023-04-28T05:12:01.909Z,97729.00
2023-04-28T05:14:29.550Z,97719.00
2023-04-28T05:16:57.381Z,97730.00
2023-04-28T05:19:25.152Z,97729.00
2023-04-28T05:21:54.691Z,97731.00
2023-04-28T05:24:24.592Z,97720.00
2023-04-28T05:26:52.887Z,97730.00
2023-04-28T05:29:20.587Z,97725.00
2023-04-28T05:31:48.305Z,97729.00
2023-04-28T05:34:16.536Z,97736.00
2023-04-28T05:36:45.810Z,97723.00
2023-04-28T05:39:13.652Z,97727.00
2023-04-28T05:41:42.736Z,97726.00
2023-04-28T05:44:10.397Z,97726.00
2023-04-28T05:46:38.296Z,97728.00
2023-04-28T05:49:05.986Z,97726.00
2023-04-28T05:51:33.753Z,97728.00
2023-04-28T05:54:01.633Z,97727.00
2023-04-28T05:56:29.321Z,97729.00
2023-04-28T05:58:58.633Z,97724.00
2023-04-28T06:01:26.315Z,97719.00
2023-04-28T06:03:56.237Z,97720.00
2023-04-28T06:06:24.084Z,97720.00
2023-04-28T06:08:51.862Z,97729.00
2023-04-28T06:11:22.358Z,97726.00
2023-04-28T06:13:50.795Z,97726.00
2023-04-28T06:16:20.563Z,97724.00
2023-04-28T06:18:49.804Z,97723.00
2023-04-28T06:21:18.476Z,97728.00
2023-04-28T06:23:46.176Z,97718.00
2023-04-28T06:26:15.162Z,97722.00
2023-04-28T06:28:43.900Z,97711.00
2023-04-28T06:31:11.600Z,97719.00
2023-04-28T06:33:40.610Z,97715.00
2023-04-28T06:36:09.002Z,97718.00
2023-04-28T06:38:37.496Z,97713.00
2023-04-28T06:41:05.355Z,97708.00
2023-04-28T06:43:33.438Z,97703.00
2023-04-28T06:46:01.129Z,97702.00
2023-04-28T06:48:28.853Z,97705.00
2023-04-28T06:50:57.882Z,97703.00
2023-04-28T06:53:25.499Z,97700.00
2023-04-28T06:55:53.312Z,97690.00
2023-04-28T06:58:21.851Z,97699.00
2023-04-28T07:00:49.570Z,97694.00
2023-04-28T07:03:17.305Z,97696.00
2023-04-28T07:05:44.996Z,97694.00
2023-04-28T07:08:14.020Z,97694.00
2023-04-28T07:10:42.145Z,97698.00
2023-04-28T07:13:10.161Z,97699.00
2023-04-28T07:15:38.325Z,97702.00
2023-04-28T07:18:06.092Z,97706.00
2023-04-28T07:20:33.804Z,97705.00
2023-04-28T07:23:01.469Z,97704.00
2023-04-28T07:25:30.822Z,97703.00
2023-04-28T07:27:58.544Z,97703.00
2023-04-28T07:30:27.723Z,97700.00
2023-04-28T07:32:56.311Z,97706.00
2023-04-28T07:35:24.195Z,97711.00
2023-04-28T07:37:52.093Z,97710.00
2023-04-28T07:40:20.451Z,97714.00
2023-04-28T07:42:49.500Z,97707.00
2023-04-28T07:45:17.264Z,97718.00
2023-04-28T07:47:45.030Z,97715.00
2023-04-28T07:50:12.903Z,97720.00
2023-04-28T07:52:40.650Z,97726.00
2023-04-28T07:55:08.937Z,97731.00
2023-04-28T07:57:36.928Z,97722.00
2023-04-28T08:00:07.452Z,97734.00
2023-04-28T08:02:35.565Z,97732.00
2023-04-28T08:05:03.510Z,97730.00
2023-04-28T08:07:32.024Z,97738.00
2023-04-28T08:09:59.920Z,97733.00
2023-04-28T08:12:27.739Z,97714.00
2023-04-28T08:14:55.384Z,97713.00
2023-04-28T08:17:24.659Z,97706.00
2023-04-28T08:19:52.336Z,97707.00
2023-04-28T08:22:20.020Z,97700.00
2023-04-28T08:24:47.874Z,97710.00
2023-04-28T08:27:15.638Z,97696.00
2023-04-28T08:29:43.364Z,97687.00
2023-04-28T08:32:11.045Z,97690.00
2023-04-28T08:34:40.063Z,97685.00
2023-04-28T08:37:07.796Z,97680.00
2023-04-28T08:39:35.676Z,97676.00
2023-04-28T08:42:05.538Z,97675.00
2023-04-28T08:44:38.604Z,97671.00
2023-04-28T08:47:13.198Z,97677.00
2023-04-28T08:49:42.547Z,97677.00
2023-04-28T08:52:13.324Z,97677.00
2023-04-28T08:54:41.704Z,97677.00
2023-04-28T08:57:10.942Z,97678.00
2023-04-28T08:59:40.320Z,97679.00
2023-04-28T09:02:09.195Z,97673.00
2023-04-28T09:04:37.275Z,97671.00
2023-04-28T09:07:12.257Z,97666.00
2023-04-28T09:09:40.887Z,97668.00
2023-04-28T09:12:10.370Z,97670.00
2023-04-28T09:14:39.511Z,97661.00
2023-04-28T09:17:12.703Z,97646.00
2023-04-28T09:19:42.948Z,97641.00
2023-04-28T09:22:25.422Z,97653.00
2023-04-28T09:24:55.271Z,97656.00
2023-04-28T09:27:28.252Z,97664.00
2023-04-28T09:29:56.078Z,97668.00
2023-04-28T09:32:25.956Z,97670.00
2023-04-28T09:34:56.819Z,97669.00
2023-04-28T09:37:30.712Z,97674.00
2023-04-28T09:40:03.955Z,97674.00
2023-04-28T09:42:36.274Z,97672.00
2023-04-28T09:45:05.947Z,97680.00
2023-04-28T09:47:35.293Z,97679.00
2023-04-28T09:50:06.041Z,97660.00
2023-04-28T09:52:35.794Z,97657.00
2023-04-28T09:55:04.787Z,97662.00
2023-04-28T09:57:35.772Z,97667.00
2023-04-28T10:00:06.226Z,97663.00
2023-04-28T10:05:09.622Z,97665.00
2023-04-28T10:07:40.295Z,97646.00
2023-04-28T10:10:09.124Z,97642.00
2023-04-28T10:12:38.445Z,97651.00
2023-04-28T10:15:08.395Z,97653.00
2023-04-28T10:17:37.089Z,97643.00
2023-04-28T10:20:06.621Z,97637.00
2023-04-28T10:22:53.677Z,97625.00
2023-04-28T10:25:28.771Z,97624.00
2023-04-28T10:27:56.840Z,97610.00
2023-04-28T10:30:28.748Z,97616.00
2023-04-28T10:33:26.110Z,97626.00
2023-04-28T10:35:53.971Z,97601.00
2023-04-28T10:38:23.402Z,97613.00
2023-04-28T10:40:51.967Z,97609.00
2023-04-28T10:43:35.338Z,97608.00
2023-04-28T10:46:06.140Z,97622.00
2023-04-28T10:49:07.184Z,97639.00
2023-04-28T10:51:36.080Z,97630.00
2023-04-28T10:54:20.499Z,97627.00
2023-04-28T10:57:16.994Z,97620.00
2023-04-28T10:59:44.714Z,97623.00
2023-04-28T11:02:40.438Z,97616.00
2023-04-28T11:05:19.103Z,97623.00
2023-04-28T11:08:33.201Z,97620.00
2023-04-28T11:11:21.843Z,97616.00
2023-04-28T11:13:50.633Z,97617.00
2023-04-28T11:16:20.626Z,97621.00
2023-04-28T11:18:55.660Z,97620.00
2023-04-28T11:21:25.954Z,97617.00
2023-04-28T11:23:53.695Z,97623.00
2023-04-28T11:26:23.656Z,97619.00
2023-04-28T11:28:53.316Z,97621.00
2023-04-28T11:31:24.066Z,97617.00
2023-04-28T11:33:59.037Z,97622.00
2023-04-28T11:36:32.850Z,97624.00
2023-04-28T11:39:01.122Z,97626.00
2023-04-28T11:41:30.123Z,97623.00
2023-04-28T11:43:57.784Z,97628.00
2023-04-28T11:46:26.840Z,97628.00
2023-04-28T11:49:02.445Z,97626.00
2023-04-28T11:51:35.724Z,97625.00
2023-04-28T11:54:04.348Z,97619.00
2023-04-28T11:56:38.472Z,97620.00
2023-04-28T11:59:08.892Z,97622.00
2023-04-28T12:01:46.675Z,97626.00
2023-04-28T12:04:15.092Z,97617.00
2023-04-28T12:06:42.957Z,97606.00
2023-04-28T12:09:17.987Z,97605.00
2023-04-28T12:11:57.917Z,97608.00
2023-04-28T12:14:26.488Z,97608.00
2023-04-28T12:16:54.236Z,97618.00
2023-04-28T12:19:22.004Z,97622.00
2023-04-28T12:22:03.690Z,97611.00
2023-04-28T12:24:32.100Z,97601.00
2023-04-28T12:27:18.046Z,97603.00
2023-04-28T12:29:47.356Z,97596.00
2023-04-28T12:32:16.028Z,97602.00
2023-04-28T12:34:45.438Z,97598.00
2023-04-28T12:37:14.281Z,97608.00
2023-04-28T12:39:43.304Z,97602.00
2023-04-28T12:42:11.805Z,97599.00
2023-04-28T12:44:40.903Z,97605.00
2023-04-28T12:47:10.842Z,97610.00
2023-04-28T12:49:39.385Z,97606.00
2023-04-28T12:52:07.727Z,97599.00
2023-04-28T12:54:35.781Z,97603.00
2023-04-28T12:57:04.061Z,97614.00
2023-04-28T12:59:32.702Z,97615.00
2023-04-28T13:02:01.791Z,97618.00
2023-04-28T13:04:30.247Z,97621.00
2023-04-28T13:06:58.755Z,97606.00
2023-04-28T13:09:27.236Z,97609.00
2023-04-28T13:11:55.030Z,97589.00
2023-04-28T13:14:23.126Z,97584.00
2023-04-28T13:16:51.804Z,97584.00
2023-04-28T13:19:20.789Z,97581.00
2023-04-28T13:21:48.597Z,97584.00
2023-04-28T13:24:16.386Z,97588.00
2023-04-28T13:26:45.222Z,97591.00
2023-04-28T13:29:14.336Z,97588.00
2023-04-28T13:31:42.770Z,97589.00
2023-04-28T13:34:15.911Z,97592.00
2023-04-28T13:36:48.488Z,97586.00
2023-04-28T13:39:16.209Z,97579.00
2023-04-28T13:41:44.137Z,97576.00
2023-04-28T13:44:11.775Z,97585.00
2023-04-28T13:46:39.492Z,97581.00
2023-04-28T13:49:07.296Z,97583.00
2023-04-28T13:51:35.281Z,97584.00
2023-04-28T13:54:05.383Z,97580.00
2023-04-28T13:56:33.213Z,97570.00
2023-04-28T13:59:01.030Z,97569.00
2023-04-28T14:01:28.802Z,97570.00
2023-04-28T14:03:56.644Z,97566.00
2023-04-28T14:06:24.478Z,97560.00
2023-04-28T14:08:52.405Z,97562.00
2023-04-28T14:11:21.431Z,97561.00
2023-04-28T14:13:49.064Z,97555.00
2023-04-28T14:16:16.822Z,97560.00
2023-04-28T14:18:44.540Z,97554.00
2023-04-28T14:21:12.220Z,97549.00
2023-04-28T14:23:39.854Z,97553.00
2023-04-28T14:26:07.720Z,97562.00
2023-04-28T14:28:37.440Z,97561.00
2023-04-28T14:31:07.325Z,97566.00
2023-04-28T14:33:35.445Z,97558.00
2023-04-28T14:36:03.215Z,97553.00
2023-04-28T14:38:31.316Z,97557.00
2023-04-28T14:40:59.102Z,97557.00
2023-04-28T14:43:26.837Z,97556.00
2023-04-28T14:45:55.961Z,97549.00
2023-04-28T14:48:23.664Z,97543.00
2023-04-28T14:50:51.760Z,97536.00
2023-04-28T14:53:19.444Z,97529.00
2023-04-28T14:55:47.165Z,97536.00
2023-04-28T14:58:15.295Z,97536.00
2023-04-28T15:00:43.588Z,97528.00
2023-04-28T15:03:12.912Z,97533.00
2023-04-28T15:05:40.686Z,97521.00
2023-04-28T15:08:08.419Z,97516.00
2023-04-28T15:10:39.753Z,97524.00
2023-04-28T15:13:08.032Z,97532.00
2023-04-28T15:15:36.432Z,97530.00
2023-04-28T15:18:04.565Z,97535.00
2023-04-28T15:20:34.303Z,97539.00
2023-04-28T15:23:01.986Z,97529.00
2023-04-28T15:25:29.729Z,97532.00
2023-04-28T15:27:57.375Z,97537.00
2023-04-28T15:30:25.011Z,97535.00
2023-04-28T15:32:52.953Z,97532.00
2023-04-28T15:35:21.187Z,97531.00
2023-04-28T15:37:53.267Z,97534.00
2023-04-28T15:40:21.592Z,97539.00
2023-04-28T15:42:51.691Z,97544.00
2023-04-28T15:45:21.229Z,97539.00
2023-04-28T15:47:50.438Z,97533.00
2023-04-28T15:50:20.326Z,97533.00
2023-04-28T15:52:57.531Z,97539.00
2023-04-28T15:55:25.910Z,97550.00
2023-04-28T15:57:53.581Z,97558.00
2023-04-28T16:00:21.406Z,97551.00
2023-04-28T16:02:49.283Z,97548.00
2023-04-28T16:05:17.134Z,97548.00
2023-04-28T16:07:45.364Z,97550.00
2023-04-28T16:10:16.041Z,97555.00
2023-04-28T16:12:44.189Z,97545.00
2023-04-28T16:15:13.590Z,97536.00
2023-04-28T16:17:42.307Z,97533.00
2023-04-28T16:20:11.584Z,97530.00
2023-04-28T16:22:40.406Z,97528.00
2023-04-28T16:25:09.224Z,97532.00
2023-04-28T16:27:39.310Z,97533.00
2023-04-28T16:30:08.797Z,97529.00
2023-04-28T16:32:38.217Z,97528.00
2023-04-28T16:35:06.614Z,97533.00
2023-04-28T16:37:36.374Z,97527.00
2023-04-28T16:40:04.610Z,97516.00
2023-04-28T16:42:32.301Z,97522.00
2023-04-28T16:45:01.378Z,97526.00
2023-04-28T16:47:31.162Z,97520.00
2023-04-28T16:49:58.973Z,97523.00
2023-04-28T16:52:27.364Z,97523.00
2023-04-28T16:54:55.001Z,97522.00
2023-04-28T16:57:22.856Z,97518.00
2023-04-28T16:59:51.013Z,97522.00
2023-04-28T17:02:20.426Z,97517.00
2023-04-28T17:04:48.209Z,97521.00
2023-04-28T17:07:15.979Z,97518.00
2023-04-28T17:09:43.640Z,97523.00
2023-04-28T17:12:11.302Z,97510.00
2023-04-28T17:14:39.254Z,97495.00
2023-04-28T17:17:07.240Z,97499.00
2023-04-28T17:19:36.802Z,97491.00
2023-04-28T17:22:04.535Z,97492.00
2023-04-28T17:24:32.188Z,97487.00
2023-04-28T17:26:59.957Z,97483.00
2023-04-28T17:29:27.768Z,97481.00
2023-04-28T17:31:55.538Z,97484.00
2023-04-28T17:34:23.612Z,97483.00
2023-04-28T17:36:52.618Z,97473.00
2023-04-28T17:39:20.309Z,97470.00
2023-04-28T17:41:47.984Z,97479.00
2023-04-28T17:44:15.662Z,97470.00
2023-04-28T17:46:43.353Z,97466.00
2023-04-28T17:49:11.024Z,97479.00
2023-04-28T17:51:38.715Z,97472.00
2023-04-28T17:54:09.607Z,97471.00
2023-04-28T17:56:38.211Z,97490.00
2023-04-28T17:59:08.190Z,97487.00
2023-04-28T18:01:36.031Z,97487.00
2023-04-28T18:04:04.076Z,97479.00
2023-04-28T18:06:31.818Z,97480.00
2023-04-28T18:08:59.496Z,97480.00
2023-04-28T18:11:28.506Z,97486.00
2023-04-28T18:13:56.352Z,97495.00
2023-04-28T18:16:24.014Z,97495.00
2023-04-28T18:18:51.823Z,97499.00
2023-04-28T18:21:19.514Z,97504.00
2023-04-28T18:23:47.637Z,97513.00
2023-04-28T18:26:15.302Z,97509.00
2023-04-28T18:28:48.047Z,97521.00
2023-04-28T18:31:16.173Z,97527.00
2023-04-28T18:33:44.985Z,97526.00
2023-04-28T18:36:12.770Z,97519.00
2023-04-28T18:38:40.498Z,97521.00
2023-04-28T18:41:15.513Z,97527.00
2023-04-28T18:43:45.529Z,97530.00
2023-04-28T18:46:13.682Z,97531.00
2023-04-28T18:48:41.488Z,97529.00
2023-04-28T18:51:09.255Z,97534.00
2023-04-28T18:53:37.211Z,97535.00
2023-04-28T18:56:05.230Z,97550.00
2023-04-28T18:58:33.271Z,97558.00
2023-04-28T19:01:02.386Z,97562.00
2023-04-28T19:03:31.435Z,97562.00
2023-04-28T19:05:59.363Z,97559.00
2023-04-28T19:08:27.020Z,97564.00
2023-04-28T19:10:54.675Z,97561.00
2023-04-28T19:13:22.809Z,97564.00
2023-04-28T19:15:53.499Z,97562.00
2023-04-28T19:18:22.600Z,97562.00
2023-04-28T19:20:52.189Z,97565.00
2023-04-28T19:23:19.865Z,97583.00
2023-04-28T19:25:47.601Z,97593.00
2023-04-28T19:28:15.227Z,97591.00
2023-04-28T19:30:42.917Z,97587.00
2023-04-28T19:33:10.735Z,97588.00
2023-04-28T19:35:40.068Z,97593.00
2023-04-28T19:38:08.152Z,97596.00
2023-04-28T19:40:35.903Z,97596.00
2023-04-28T19:43:04.036Z,97599.00
2023-04-28T19:45:31.759Z,97587.00
2023-04-28T19:47:59.453Z,97598.00
2023-04-28T19:50:27.139Z,97602.00
2023-04-28T19:52:56.212Z,97606.00
2023-04-28T19:55:24.268Z,97601.00
2023-04-28T19:57:55.163Z,97607.00
2023-04-28T20:00:24.269Z,97619.00
2023-04-28T20:02:52.333Z,97599.00
2023-04-28T20:05:20.801Z,97589.00
2023-04-28T20:07:48.956Z,97604.00
2023-04-28T20:10:19.007Z,97620.00
2023-04-28T20:12:46.646Z,97628.00
2023-04-28T20:15:16.595Z,97631.00
2023-04-28T20:17:44.371Z,97628.00
2023-04-28T20:20:12.570Z,97634.00
2023-04-28T20:22:40.749Z,97637.00
2023-04-28T20:25:10.403Z,97631.00
2023-04-28T20:27:39.524Z,97620.00
2023-04-28T20:30:08.652Z,97612.00
2023-04-28T20:32:36.703Z,97622.00
2023-04-28T20:35:05.741Z,97617.00
2023-04-28T20:37:33.438Z,97628.00
2023-04-28T20:40:01.111Z,97639.00
2023-04-28T20:42:29.319Z,97627.00
2023-04-28T20:44:58.732Z,97625.00
2023-04-28T20:47:26.496Z,97622.00
2023-04-28T20:49:54.218Z,97620.00
2023-04-28T20:52:21.929Z,97612.00
2023-04-28T20:54:49.780Z,97611.00
2023-04-28T20:57:17.448Z,97607.00
2023-04-28T20:59:45.101Z,97615.00
2023-04-28T21:02:14.144Z,97603.00
2023-04-28T21:04:41.804Z,97611.00
2023-04-28T21:07:09.442Z,97617.00
2023-04-28T21:09:37.530Z,97612.00
2023-04-28T21:12:05.972Z,97616.00
2023-04-28T21:14:35.726Z,97613.00
2023-04-28T21:17:03.815Z,97613.00
2023-04-28T21:19:33.188Z,97616.00
2023-04-28T21:22:00.923Z,97611.00
2023-04-28T21:24:28.581Z,97607.00
2023-04-28T21:26:56.255Z,97603.00
2023-04-28T21:29:23.948Z,97611.00
2023-04-28T21:31:51.704Z,97596.00
2023-04-28T21:34:19.375Z,97592.00
2023-04-28T21:36:48.843Z,97598.00
2023-04-28T21:39:16.596Z,97602.00
2023-04-28T21:41:44.557Z,97603.00
2023-04-28T21:44:12.919Z,97606.00
2023-04-28T21:46:40.717Z,97600.00
2023-04-28T21:49:08.683Z,97602.00
2023-04-28T21:51:36.611Z,97607.00
2023-04-28T21:54:05.681Z,97605.00
2023-04-28T21:56:33.960Z,97608.00
2023-04-28T21:59:01.673Z,97605.00
2023-04-28T22:01:29.769Z,97601.00
2023-04-28T22:03:59.127Z,97587.00
2023-04-28T22:06:27.541Z,97592.00
2023-04-28T22:08:55.928Z,97595.00
2023-04-28T22:11:25.379Z,97592.00
2023-04-28T22:13:53.086Z,97593.00
2023-04-28T22:16:21.686Z,97582.00
2023-04-28T22:18:49.716Z,97592.00
2023-04-28T22:21:17.589Z,97587.00
2023-04-28T22:23:45.341Z,97586.00
2023-04-28T22:26:13.042Z,97584.00
2023-04-28T22:28:42.448Z,97589.00
2023-04-28T22:31:10.445Z,97587.00
2023-04-28T22:33:38.668Z,97587.00
2023-04-28T22:36:07.235Z,97593.00
2023-04-28T22:38:34.882Z,97592.00
2023-04-28T22:41:02.715Z,97591.00
2023-04-28T22:43:30.389Z,97592.00
2023-04-28T22:45:59.451Z,97589.00
2023-04-28T22:48:27.748Z,97596.00
2023-04-28T22:50:55.415Z,97588.00
2023-04-28T22:53:23.170Z,97585.00
2023-04-28T22:55:51.250Z,97582.00
2023-04-28T22:58:18.901Z,97583.00
2023-04-28T23:00:46.728Z,97584.00
2023-04-28T23:03:16.149Z,97575.00
2023-04-28T23:05:44.011Z,97571.00
2023-04-28T23:08:11.649Z,97577.00
2023-04-28T23:10:39.417Z,97568.00
2023-04-28T23:13:07.291Z,97575.00
2023-04-28T23:15:35.224Z,97573.00
2023-04-28T23:18:03.012Z,97576.00
2023-04-28T23:20:34.145Z,97577.00
2023-04-28T23:23:01.851Z,97574.00
2023-04-28T23:25:29.481Z,97577.00
2023-04-28T23:27:57.189Z,97576.00
2023-04-28T23:30:24.882Z,97574.00
2023-04-28T23:32:52.624Z,97569.00
2023-04-28T23:35:20.300Z,97569.00
2023-04-28T23:37:49.375Z,97567.00
2023-04-28T23:40:17.337Z,97568.00
2023-04-28T23:42:45.018Z,97570.00
2023-04-28T23:45:12.781Z,97567.00
2023-04-28T23:47:40.529Z,97568.00
2023-04-28T23:50:09.651Z,97557.00
2023-04-28T23:52:37.726Z,97560.00
2023-04-28T23:55:08.556Z,97558.00
2023-04-28T23:57:36.774Z,97552.00
